sensor_id;sensor_type;location;lat;lon;timestamp;P1;durP1;ratioP1;P2;durP2;ratioP2
15905;SDS011;8051;50.820;4.884;2022-11-20T00:00:27;39.93;;;33.43;;
15905;SDS011;8051;50.820;4.884;2022-11-20T00:02:55;36.20;;;32.40;;
15905;SDS011;8051;50.820;4.884;2022-11-20T00:05:22;36.77;;;32.93;;
15905;SDS011;8051;50.820;4.884;2022-11-20T00:07:50;36.70;;;32.93;;
15905;SDS011;8051;50.820;4.884;2022-11-20T00:10:17;38.60;;;34.60;;
15905;SDS011;8051;50.820;4.884;2022-11-20T00:12:45;37.73;;;32.70;;
15905;SDS011;8051;50.820;4.884;2022-11-20T00:15:12;35.90;;;32.33;;
15905;SDS011;8051;50.820;4.884;2022-11-20T00:17:41;35.13;;;31.47;;
15905;SDS011;8051;50.820;4.884;2022-11-20T00:20:09;38.07;;;32.90;;
15905;SDS011;8051;50.820;4.884;2022-11-20T00:22:38;38.27;;;33.30;;
15905;SDS011;8051;50.820;4.884;2022-11-20T00:25:05;38.90;;;34.70;;
15905;SDS011;8051;50.820;4.884;2022-11-20T00:27:33;37.03;;;32.50;;
15905;SDS011;8051;50.820;4.884;2022-11-20T00:30:01;38.27;;;34.10;;
15905;SDS011;8051;50.820;4.884;2022-11-20T00:32:29;40.20;;;33.57;;
15905;SDS011;8051;50.820;4.884;2022-11-20T00:34:58;37.53;;;33.67;;
15905;SDS011;8051;50.820;4.884;2022-11-20T00:37:25;37.93;;;33.97;;
15905;SDS011;8051;50.820;4.884;2022-11-20T00:39:53;35.60;;;31.80;;
15905;SDS011;8051;50.820;4.884;2022-11-20T00:42:20;36.80;;;32.90;;
15905;SDS011;8051;50.820;4.884;2022-11-20T00:44:48;37.83;;;33.90;;
15905;SDS011;8051;50.820;4.884;2022-11-20T00:47:15;36.30;;;32.60;;
15905;SDS011;8051;50.820;4.884;2022-11-20T00:49:42;37.87;;;33.87;;
15905;SDS011;8051;50.820;4.884;2022-11-20T00:52:11;39.60;;;33.07;;
15905;SDS011;8051;50.820;4.884;2022-11-20T00:54:38;40.03;;;34.60;;
15905;SDS011;8051;50.820;4.884;2022-11-20T00:57:05;37.43;;;33.63;;
15905;SDS011;8051;50.820;4.884;2022-11-20T00:59:33;36.87;;;33.03;;
15905;SDS011;8051;50.820;4.884;2022-11-20T01:02:00;37.77;;;33.80;;
15905;SDS011;8051;50.820;4.884;2022-11-20T01:04:28;38.63;;;34.43;;
15905;SDS011;8051;50.820;4.884;2022-11-20T01:06:55;40.13;;;34.53;;
15905;SDS011;8051;50.820;4.884;2022-11-20T01:09:24;39.30;;;34.13;;
15905;SDS011;8051;50.820;4.884;2022-11-20T01:11:51;38.87;;;34.67;;
15905;SDS011;8051;50.820;4.884;2022-11-20T01:14:19;41.63;;;36.27;;
15905;SDS011;8051;50.820;4.884;2022-11-20T01:16:47;41.83;;;34.23;;
15905;SDS011;8051;50.820;4.884;2022-11-20T01:19:16;43.23;;;35.80;;
15905;SDS011;8051;50.820;4.884;2022-11-20T01:21:46;48.97;;;37.03;;
15905;SDS011;8051;50.820;4.884;2022-11-20T01:24:16;44.77;;;36.90;;
15905;SDS011;8051;50.820;4.884;2022-11-20T01:26:47;53.10;;;38.13;;
15905;SDS011;8051;50.820;4.884;2022-11-20T01:29:16;42.97;;;37.20;;
15905;SDS011;8051;50.820;4.884;2022-11-20T01:31:45;54.20;;;41.03;;
15905;SDS011;8051;50.820;4.884;2022-11-20T01:34:13;54.57;;;39.67;;
15905;SDS011;8051;50.820;4.884;2022-11-20T01:36:43;55.77;;;41.40;;
15905;SDS011;8051;50.820;4.884;2022-11-20T01:39:11;49.13;;;38.97;;
15905;SDS011;8051;50.820;4.884;2022-11-20T01:41:40;56.00;;;38.83;;
15905;SDS011;8051;50.820;4.884;2022-11-20T01:47:21;63.23;;;41.83;;
15905;SDS011;8051;50.820;4.884;2022-11-20T01:49:54;52.80;;;40.80;;
15905;SDS011;8051;50.820;4.884;2022-11-20T01:52:27;52.27;;;38.80;;
15905;SDS011;8051;50.820;4.884;2022-11-20T01:54:59;60.50;;;41.13;;
15905;SDS011;8051;50.820;4.884;2022-11-20T01:57:31;57.40;;;41.63;;
15905;SDS011;8051;50.820;4.884;2022-11-20T02:00:04;59.40;;;42.90;;
15905;SDS011;8051;50.820;4.884;2022-11-20T02:02:35;63.83;;;42.93;;
15905;SDS011;8051;50.820;4.884;2022-11-20T02:05:12;58.73;;;42.10;;
15905;SDS011;8051;50.820;4.884;2022-11-20T02:07:44;53.83;;;42.97;;
15905;SDS011;8051;50.820;4.884;2022-11-20T02:10:12;59.17;;;41.80;;
15905;SDS011;8051;50.820;4.884;2022-11-20T02:12:40;63.90;;;43.73;;
15905;SDS011;8051;50.820;4.884;2022-11-20T02:15:27;61.43;;;42.57;;
15905;SDS011;8051;50.820;4.884;2022-11-20T02:17:54;59.80;;;46.87;;
15905;SDS011;8051;50.820;4.884;2022-11-20T02:20:22;74.20;;;47.53;;
15905;SDS011;8051;50.820;4.884;2022-11-20T02:22:50;68.27;;;46.83;;
15905;SDS011;8051;50.820;4.884;2022-11-20T02:25:22;76.27;;;48.57;;
15905;SDS011;8051;50.820;4.884;2022-11-20T02:27:51;67.37;;;47.23;;
15905;SDS011;8051;50.820;4.884;2022-11-20T02:30:18;69.33;;;47.23;;
15905;SDS011;8051;50.820;4.884;2022-11-20T02:32:46;64.53;;;48.17;;
15905;SDS011;8051;50.820;4.884;2022-11-20T02:38:11;72.10;;;48.73;;
15905;SDS011;8051;50.820;4.884;2022-11-20T02:40:41;80.57;;;50.50;;
15905;SDS011;8051;50.820;4.884;2022-11-20T02:43:08;78.90;;;50.37;;
15905;SDS011;8051;50.820;4.884;2022-11-20T02:45:36;85.80;;;54.80;;
15905;SDS011;8051;50.820;4.884;2022-11-20T02:48:05;98.63;;;56.97;;
15905;SDS011;8051;50.820;4.884;2022-11-20T02:50:32;98.33;;;54.73;;
15905;SDS011;8051;50.820;4.884;2022-11-20T02:53:00;90.80;;;54.97;;
15905;SDS011;8051;50.820;4.884;2022-11-20T02:55:27;112.03;;;58.23;;
15905;SDS011;8051;50.820;4.884;2022-11-20T02:57:56;95.90;;;55.77;;
15905;SDS011;8051;50.820;4.884;2022-11-20T03:00:23;99.03;;;58.97;;
15905;SDS011;8051;50.820;4.884;2022-11-20T03:02:51;112.03;;;60.77;;
15905;SDS011;8051;50.820;4.884;2022-11-20T03:05:18;108.13;;;59.03;;
15905;SDS011;8051;50.820;4.884;2022-11-20T03:07:45;111.23;;;59.30;;
15905;SDS011;8051;50.820;4.884;2022-11-20T03:10:13;110.30;;;60.97;;
15905;SDS011;8051;50.820;4.884;2022-11-20T03:12:40;91.10;;;55.87;;
15905;SDS011;8051;50.820;4.884;2022-11-20T03:15:09;106.83;;;59.73;;
15905;SDS011;8051;50.820;4.884;2022-11-20T03:17:37;110.67;;;60.00;;
15905;SDS011;8051;50.820;4.884;2022-11-20T03:20:04;110.53;;;60.00;;
15905;SDS011;8051;50.820;4.884;2022-11-20T03:22:34;110.67;;;61.50;;
15905;SDS011;8051;50.820;4.884;2022-11-20T03:25:01;129.03;;;62.33;;
15905;SDS011;8051;50.820;4.884;2022-11-20T03:27:31;113.90;;;59.83;;
15905;SDS011;8051;50.820;4.884;2022-11-20T03:30:00;108.73;;;60.83;;
15905;SDS011;8051;50.820;4.884;2022-11-20T03:32:29;107.63;;;58.97;;
15905;SDS011;8051;50.820;4.884;2022-11-20T03:34:57;113.13;;;61.27;;
15905;SDS011;8051;50.820;4.884;2022-11-20T03:37:24;106.37;;;60.53;;
15905;SDS011;8051;50.820;4.884;2022-11-20T03:39:52;113.97;;;58.67;;
15905;SDS011;8051;50.820;4.884;2022-11-20T03:42:19;110.30;;;58.47;;
15905;SDS011;8051;50.820;4.884;2022-11-20T03:45:04;114.57;;;60.03;;
15905;SDS011;8051;50.820;4.884;2022-11-20T03:47:34;114.83;;;61.10;;
15905;SDS011;8051;50.820;4.884;2022-11-20T03:50:01;102.77;;;56.47;;
15905;SDS011;8051;50.820;4.884;2022-11-20T03:52:29;109.27;;;58.37;;
15905;SDS011;8051;50.820;4.884;2022-11-20T03:54:56;118.53;;;59.87;;
15905;SDS011;8051;50.820;4.884;2022-11-20T03:57:23;126.27;;;59.73;;
15905;SDS011;8051;50.820;4.884;2022-11-20T03:59:51;117.23;;;59.10;;
15905;SDS011;8051;50.820;4.884;2022-11-20T04:02:18;132.47;;;61.57;;
15905;SDS011;8051;50.820;4.884;2022-11-20T04:04:47;126.57;;;57.87;;
15905;SDS011;8051;50.820;4.884;2022-11-20T04:07:15;127.47;;;58.17;;
15905;SDS011;8051;50.820;4.884;2022-11-20T04:09:42;110.87;;;56.67;;
15905;SDS011;8051;50.820;4.884;2022-11-20T04:12:09;105.73;;;55.67;;
15905;SDS011;8051;50.820;4.884;2022-11-20T04:14:37;98.70;;;52.67;;
15905;SDS011;8051;50.820;4.884;2022-11-20T04:17:04;93.73;;;51.70;;
15905;SDS011;8051;50.820;4.884;2022-11-20T04:19:31;90.00;;;53.13;;
15905;SDS011;8051;50.820;4.884;2022-11-20T04:22:00;90.77;;;52.70;;
15905;SDS011;8051;50.820;4.884;2022-11-20T04:24:28;97.67;;;52.67;;
15905;SDS011;8051;50.820;4.884;2022-11-20T04:26:55;94.37;;;52.80;;
15905;SDS011;8051;50.820;4.884;2022-11-20T04:29:23;96.07;;;53.30;;
15905;SDS011;8051;50.820;4.884;2022-11-20T04:31:50;89.47;;;50.43;;
15905;SDS011;8051;50.820;4.884;2022-11-20T04:34:18;94.17;;;52.80;;
15905;SDS011;8051;50.820;4.884;2022-11-20T04:36:45;87.97;;;51.57;;
15905;SDS011;8051;50.820;4.884;2022-11-20T04:39:14;90.80;;;50.60;;
15905;SDS011;8051;50.820;4.884;2022-11-20T04:41:42;91.63;;;49.87;;
15905;SDS011;8051;50.820;4.884;2022-11-20T04:44:09;102.53;;;52.03;;
15905;SDS011;8051;50.820;4.884;2022-11-20T04:46:37;84.63;;;49.73;;
15905;SDS011;8051;50.820;4.884;2022-11-20T04:49:06;85.63;;;51.40;;
15905;SDS011;8051;50.820;4.884;2022-11-20T04:51:34;98.33;;;53.07;;
15905;SDS011;8051;50.820;4.884;2022-11-20T04:54:02;90.60;;;50.37;;
15905;SDS011;8051;50.820;4.884;2022-11-20T04:56:31;86.97;;;51.37;;
15905;SDS011;8051;50.820;4.884;2022-11-20T04:58:59;91.50;;;49.43;;
15905;SDS011;8051;50.820;4.884;2022-11-20T05:01:27;82.30;;;50.30;;
15905;SDS011;8051;50.820;4.884;2022-11-20T05:03:55;78.83;;;47.03;;
15905;SDS011;8051;50.820;4.884;2022-11-20T05:06:22;88.03;;;51.23;;
15905;SDS011;8051;50.820;4.884;2022-11-20T05:08:50;90.33;;;48.97;;
15905;SDS011;8051;50.820;4.884;2022-11-20T05:11:18;77.57;;;44.17;;
15905;SDS011;8051;50.820;4.884;2022-11-20T05:13:48;87.43;;;48.97;;
15905;SDS011;8051;50.820;4.884;2022-11-20T05:16:16;72.30;;;44.40;;
15905;SDS011;8051;50.820;4.884;2022-11-20T05:18:45;69.80;;;43.60;;
15905;SDS011;8051;50.820;4.884;2022-11-20T05:21:13;66.83;;;41.97;;
15905;SDS011;8051;50.820;4.884;2022-11-20T05:23:40;65.73;;;43.03;;
15905;SDS011;8051;50.820;4.884;2022-11-20T05:26:11;66.97;;;43.23;;
15905;SDS011;8051;50.820;4.884;2022-11-20T05:28:40;72.83;;;42.93;;
15905;SDS011;8051;50.820;4.884;2022-11-20T05:31:10;72.37;;;43.07;;
15905;SDS011;8051;50.820;4.884;2022-11-20T05:33:39;63.80;;;42.50;;
15905;SDS011;8051;50.820;4.884;2022-11-20T05:36:07;71.77;;;43.27;;
15905;SDS011;8051;50.820;4.884;2022-11-20T05:38:36;66.83;;;42.67;;
15905;SDS011;8051;50.820;4.884;2022-11-20T05:41:04;69.47;;;42.77;;
15905;SDS011;8051;50.820;4.884;2022-11-20T05:43:32;68.37;;;40.57;;
15905;SDS011;8051;50.820;4.884;2022-11-20T05:46:01;67.07;;;41.33;;
15905;SDS011;8051;50.820;4.884;2022-11-20T05:48:31;66.93;;;39.63;;
15905;SDS011;8051;50.820;4.884;2022-11-20T05:50:59;62.73;;;40.60;;
15905;SDS011;8051;50.820;4.884;2022-11-20T05:53:27;62.43;;;38.93;;
15905;SDS011;8051;50.820;4.884;2022-11-20T05:55:58;61.67;;;39.57;;
15905;SDS011;8051;50.820;4.884;2022-11-20T05:58:25;65.47;;;43.40;;
15905;SDS011;8051;50.820;4.884;2022-11-20T06:00:53;65.90;;;42.23;;
15905;SDS011;8051;50.820;4.884;2022-11-20T06:03:21;60.50;;;42.07;;
15905;SDS011;8051;50.820;4.884;2022-11-20T06:05:50;82.10;;;46.97;;
15905;SDS011;8051;50.820;4.884;2022-11-20T06:08:17;70.97;;;46.93;;
15905;SDS011;8051;50.820;4.884;2022-11-20T06:10:45;80.50;;;49.57;;
15905;SDS011;8051;50.820;4.884;2022-11-20T06:13:12;82.03;;;49.63;;
15905;SDS011;8051;50.820;4.884;2022-11-20T06:15:40;83.37;;;49.00;;
15905;SDS011;8051;50.820;4.884;2022-11-20T06:18:07;92.93;;;50.47;;
15905;SDS011;8051;50.820;4.884;2022-11-20T06:20:34;78.20;;;49.53;;
15905;SDS011;8051;50.820;4.884;2022-11-20T06:23:03;74.17;;;48.43;;
15905;SDS011;8051;50.820;4.884;2022-11-20T06:25:31;85.93;;;52.87;;
15905;SDS011;8051;50.820;4.884;2022-11-20T06:27:58;74.27;;;48.33;;
15905;SDS011;8051;50.820;4.884;2022-11-20T06:30:25;83.47;;;48.27;;
15905;SDS011;8051;50.820;4.884;2022-11-20T06:32:53;66.03;;;45.83;;
15905;SDS011;8051;50.820;4.884;2022-11-20T06:35:20;70.07;;;47.20;;
15905;SDS011;8051;50.820;4.884;2022-11-20T06:37:48;78.03;;;49.97;;
15905;SDS011;8051;50.820;4.884;2022-11-20T06:40:17;86.43;;;51.70;;
15905;SDS011;8051;50.820;4.884;2022-11-20T06:42:44;76.53;;;48.50;;
15905;SDS011;8051;50.820;4.884;2022-11-20T06:45:12;92.50;;;52.97;;
15905;SDS011;8051;50.820;4.884;2022-11-20T06:47:39;84.57;;;51.70;;
15905;SDS011;8051;50.820;4.884;2022-11-20T06:50:07;81.33;;;51.97;;
15905;SDS011;8051;50.820;4.884;2022-11-20T06:52:35;91.30;;;52.47;;
15905;SDS011;8051;50.820;4.884;2022-11-20T06:55:02;112.40;;;57.17;;
15905;SDS011;8051;50.820;4.884;2022-11-20T06:57:32;101.83;;;54.07;;
15905;SDS011;8051;50.820;4.884;2022-11-20T06:59:59;94.00;;;52.10;;
15905;SDS011;8051;50.820;4.884;2022-11-20T07:02:27;104.50;;;55.53;;
15905;SDS011;8051;50.820;4.884;2022-11-20T07:04:54;114.97;;;57.10;;
15905;SDS011;8051;50.820;4.884;2022-11-20T07:07:21;117.27;;;54.73;;
15905;SDS011;8051;50.820;4.884;2022-11-20T07:09:49;111.23;;;51.27;;
15905;SDS011;8051;50.820;4.884;2022-11-20T07:12:16;109.33;;;52.80;;
15905;SDS011;8051;50.820;4.884;2022-11-20T07:14:45;123.17;;;56.40;;
15905;SDS011;8051;50.820;4.884;2022-11-20T07:17:13;107.30;;;52.17;;
15905;SDS011;8051;50.820;4.884;2022-11-20T07:19:40;110.00;;;54.03;;
15905;SDS011;8051;50.820;4.884;2022-11-20T07:22:08;131.13;;;53.83;;
15905;SDS011;8051;50.820;4.884;2022-11-20T07:24:35;122.90;;;53.17;;
15905;SDS011;8051;50.820;4.884;2022-11-20T07:27:03;115.10;;;53.30;;
15905;SDS011;8051;50.820;4.884;2022-11-20T07:29:31;136.00;;;53.90;;
15905;SDS011;8051;50.820;4.884;2022-11-20T07:32:00;141.37;;;55.73;;
15905;SDS011;8051;50.820;4.884;2022-11-20T07:34:27;132.67;;;54.30;;
15905;SDS011;8051;50.820;4.884;2022-11-20T07:36:55;144.63;;;57.00;;
15905;SDS011;8051;50.820;4.884;2022-11-20T07:39:22;129.17;;;54.90;;
15905;SDS011;8051;50.820;4.884;2022-11-20T07:41:50;113.43;;;52.63;;
15905;SDS011;8051;50.820;4.884;2022-11-20T07:44:17;124.03;;;53.80;;
15905;SDS011;8051;50.820;4.884;2022-11-20T07:46:44;109.27;;;52.17;;
15905;SDS011;8051;50.820;4.884;2022-11-20T07:49:13;125.10;;;55.93;;
15905;SDS011;8051;50.820;4.884;2022-11-20T07:51:41;129.33;;;55.73;;
15905;SDS011;8051;50.820;4.884;2022-11-20T07:54:08;140.00;;;57.53;;
15905;SDS011;8051;50.820;4.884;2022-11-20T07:56:36;129.07;;;55.53;;
15905;SDS011;8051;50.820;4.884;2022-11-20T07:59:03;128.97;;;55.80;;
15905;SDS011;8051;50.820;4.884;2022-11-20T08:01:31;135.40;;;56.87;;
15905;SDS011;8051;50.820;4.884;2022-11-20T08:03:58;128.80;;;54.33;;
15905;SDS011;8051;50.820;4.884;2022-11-20T08:06:27;132.53;;;57.20;;
15905;SDS011;8051;50.820;4.884;2022-11-20T08:08:54;107.63;;;51.73;;
15905;SDS011;8051;50.820;4.884;2022-11-20T08:11:21;130.27;;;53.43;;
15905;SDS011;8051;50.820;4.884;2022-11-20T08:14:14;123.50;;;53.57;;
15905;SDS011;8051;50.820;4.884;2022-11-20T08:16:42;124.73;;;55.20;;
15905;SDS011;8051;50.820;4.884;2022-11-20T08:19:11;131.20;;;54.40;;
15905;SDS011;8051;50.820;4.884;2022-11-20T08:21:40;113.70;;;51.43;;
15905;SDS011;8051;50.820;4.884;2022-11-20T08:24:08;110.57;;;50.60;;
15905;SDS011;8051;50.820;4.884;2022-11-20T08:26:36;128.57;;;54.63;;
15905;SDS011;8051;50.820;4.884;2022-11-20T08:29:05;120.23;;;54.20;;
15905;SDS011;8051;50.820;4.884;2022-11-20T08:31:32;117.13;;;54.47;;
15905;SDS011;8051;50.820;4.884;2022-11-20T08:34:00;120.40;;;54.17;;
15905;SDS011;8051;50.820;4.884;2022-11-20T08:36:27;110.70;;;53.30;;
15905;SDS011;8051;50.820;4.884;2022-11-20T08:38:56;118.37;;;52.57;;
15905;SDS011;8051;50.820;4.884;2022-11-20T08:41:23;116.43;;;52.53;;
15905;SDS011;8051;50.820;4.884;2022-11-20T08:43:50;135.23;;;55.43;;
15905;SDS011;8051;50.820;4.884;2022-11-20T08:46:19;112.97;;;52.23;;
15905;SDS011;8051;50.820;4.884;2022-11-20T08:48:48;117.03;;;51.30;;
15905;SDS011;8051;50.820;4.884;2022-11-20T08:51:16;124.97;;;54.30;;
15905;SDS011;8051;50.820;4.884;2022-11-20T08:53:44;106.97;;;52.47;;
15905;SDS011;8051;50.820;4.884;2022-11-20T08:56:13;117.30;;;52.73;;
15905;SDS011;8051;50.820;4.884;2022-11-20T08:58:40;130.20;;;55.17;;
15905;SDS011;8051;50.820;4.884;2022-11-20T09:01:08;115.13;;;51.33;;
15905;SDS011;8051;50.820;4.884;2022-11-20T09:03:35;116.60;;;52.70;;
15905;SDS011;8051;50.820;4.884;2022-11-20T09:06:03;113.03;;;54.00;;
15905;SDS011;8051;50.820;4.884;2022-11-20T09:08:33;121.13;;;53.53;;
15905;SDS011;8051;50.820;4.884;2022-11-20T09:11:02;108.40;;;51.97;;
15905;SDS011;8051;50.820;4.884;2022-11-20T09:13:31;101.03;;;50.63;;
15905;SDS011;8051;50.820;4.884;2022-11-20T09:16:00;106.50;;;50.43;;
15905;SDS011;8051;50.820;4.884;2022-11-20T09:18:29;116.37;;;53.80;;
15905;SDS011;8051;50.820;4.884;2022-11-20T09:20:58;132.03;;;56.33;;
15905;SDS011;8051;50.820;4.884;2022-11-20T09:23:26;114.70;;;53.20;;
15905;SDS011;8051;50.820;4.884;2022-11-20T09:26:00;118.93;;;53.60;;
15905;SDS011;8051;50.820;4.884;2022-11-20T09:28:31;130.50;;;53.97;;
15905;SDS011;8051;50.820;4.884;2022-11-20T09:30:58;107.30;;;53.00;;
15905;SDS011;8051;50.820;4.884;2022-11-20T09:33:26;105.97;;;51.53;;
15905;SDS011;8051;50.820;4.884;2022-11-20T09:35:53;102.70;;;51.43;;
15905;SDS011;8051;50.820;4.884;2022-11-20T09:38:21;119.70;;;53.33;;
15905;SDS011;8051;50.820;4.884;2022-11-20T09:40:50;116.93;;;55.03;;
15905;SDS011;8051;50.820;4.884;2022-11-20T09:43:26;109.10;;;52.90;;
15905;SDS011;8051;50.820;4.884;2022-11-20T09:46:05;123.97;;;54.13;;
15905;SDS011;8051;50.820;4.884;2022-11-20T09:48:46;96.63;;;49.90;;
15905;SDS011;8051;50.820;4.884;2022-11-20T09:51:24;114.47;;;51.00;;
15905;SDS011;8051;50.820;4.884;2022-11-20T09:54:07;110.77;;;50.83;;
15905;SDS011;8051;50.820;4.884;2022-11-20T09:56:42;117.90;;;53.90;;
15905;SDS011;8051;50.820;4.884;2022-11-20T09:59:17;98.93;;;49.57;;
15905;SDS011;8051;50.820;4.884;2022-11-20T10:01:53;117.30;;;51.97;;
15905;SDS011;8051;50.820;4.884;2022-11-20T10:04:21;97.57;;;51.37;;
15905;SDS011;8051;50.820;4.884;2022-11-20T10:06:51;87.50;;;47.93;;
15905;SDS011;8051;50.820;4.884;2022-11-20T10:09:24;80.90;;;44.83;;
15905;SDS011;8051;50.820;4.884;2022-11-20T10:12:02;95.80;;;48.60;;
15905;SDS011;8051;50.820;4.884;2022-11-20T10:14:42;80.40;;;46.27;;
15905;SDS011;8051;50.820;4.884;2022-11-20T10:17:23;79.67;;;46.40;;
15905;SDS011;8051;50.820;4.884;2022-11-20T10:20:09;73.40;;;43.27;;
15905;SDS011;8051;50.820;4.884;2022-11-20T10:22:46;56.53;;;38.47;;
15905;SDS011;8051;50.820;4.884;2022-11-20T10:25:22;55.87;;;39.67;;
15905;SDS011;8051;50.820;4.884;2022-11-20T10:30:47;56.07;;;38.43;;
15905;SDS011;8051;50.820;4.884;2022-11-20T10:33:22;56.47;;;38.03;;
15905;SDS011;8051;50.820;4.884;2022-11-20T10:35:52;56.47;;;36.10;;
15905;SDS011;8051;50.820;4.884;2022-11-20T10:38:30;58.73;;;37.90;;
15905;SDS011;8051;50.820;4.884;2022-11-20T10:41:01;44.43;;;32.80;;
15905;SDS011;8051;50.820;4.884;2022-11-20T10:43:44;42.27;;;32.17;;
15905;SDS011;8051;50.820;4.884;2022-11-20T10:46:16;39.90;;;31.00;;
15905;SDS011;8051;50.820;4.884;2022-11-20T10:48:47;38.90;;;31.60;;
15905;SDS011;8051;50.820;4.884;2022-11-20T10:51:18;32.30;;;29.03;;
15905;SDS011;8051;50.820;4.884;2022-11-20T10:53:58;32.23;;;27.63;;
15905;SDS011;8051;50.820;4.884;2022-11-20T10:56:38;31.53;;;26.90;;
15905;SDS011;8051;50.820;4.884;2022-11-20T10:59:12;31.43;;;25.80;;
15905;SDS011;8051;50.820;4.884;2022-11-20T11:01:55;28.77;;;25.67;;
15905;SDS011;8051;50.820;4.884;2022-11-20T11:04:33;23.70;;;21.43;;
15905;SDS011;8051;50.820;4.884;2022-11-20T11:07:07;25.07;;;22.63;;
15905;SDS011;8051;50.820;4.884;2022-11-20T11:09:38;26.97;;;21.33;;
15905;SDS011;8051;50.820;4.884;2022-11-20T11:12:09;22.77;;;20.43;;
15905;SDS011;8051;50.820;4.884;2022-11-20T11:14:44;21.90;;;19.90;;
15905;SDS011;8051;50.820;4.884;2022-11-20T11:17:24;20.50;;;18.80;;
15905;SDS011;8051;50.820;4.884;2022-11-20T11:19:57;22.07;;;20.07;;
15905;SDS011;8051;50.820;4.884;2022-11-20T11:22:28;20.80;;;19.00;;
15905;SDS011;8051;50.820;4.884;2022-11-20T11:24:57;19.43;;;17.67;;
15905;SDS011;8051;50.820;4.884;2022-11-20T11:27:25;16.90;;;15.80;;
15905;SDS011;8051;50.820;4.884;2022-11-20T11:30:01;16.57;;;15.37;;
15905;SDS011;8051;50.820;4.884;2022-11-20T11:32:38;19.00;;;17.30;;
15905;SDS011;8051;50.820;4.884;2022-11-20T11:35:11;18.10;;;16.80;;
15905;SDS011;8051;50.820;4.884;2022-11-20T11:37:47;18.70;;;17.20;;
15905;SDS011;8051;50.820;4.884;2022-11-20T11:40:16;17.63;;;16.30;;
15905;SDS011;8051;50.820;4.884;2022-11-20T11:42:46;18.50;;;16.80;;
15905;SDS011;8051;50.820;4.884;2022-11-20T11:45:19;17.27;;;15.97;;
15905;SDS011;8051;50.820;4.884;2022-11-20T11:47:48;18.03;;;16.57;;
15905;SDS011;8051;50.820;4.884;2022-11-20T11:50:18;17.63;;;16.50;;
15905;SDS011;8051;50.820;4.884;2022-11-20T11:52:50;16.10;;;14.97;;
15905;SDS011;8051;50.820;4.884;2022-11-20T11:55:35;18.30;;;16.70;;
15905;SDS011;8051;50.820;4.884;2022-11-20T11:58:09;15.83;;;14.83;;
15905;SDS011;8051;50.820;4.884;2022-11-20T12:00:47;19.70;;;18.10;;
15905;SDS011;8051;50.820;4.884;2022-11-20T12:03:24;19.53;;;18.03;;
15905;SDS011;8051;50.820;4.884;2022-11-20T12:05:56;18.53;;;17.27;;
15905;SDS011;8051;50.820;4.884;2022-11-20T12:08:27;19.37;;;18.07;;
15905;SDS011;8051;50.820;4.884;2022-11-20T12:11:00;17.80;;;16.20;;
15905;SDS011;8051;50.820;4.884;2022-11-20T12:13:37;18.63;;;17.07;;
15905;SDS011;8051;50.820;4.884;2022-11-20T12:16:11;18.00;;;16.53;;
15905;SDS011;8051;50.820;4.884;2022-11-20T12:18:41;17.17;;;15.53;;
15905;SDS011;8051;50.820;4.884;2022-11-20T12:21:21;17.43;;;15.70;;
15905;SDS011;8051;50.820;4.884;2022-11-20T12:24:04;17.73;;;16.17;;
15905;SDS011;8051;50.820;4.884;2022-11-20T12:26:45;16.10;;;15.10;;
15905;SDS011;8051;50.820;4.884;2022-11-20T12:29:23;17.40;;;15.73;;
15905;SDS011;8051;50.820;4.884;2022-11-20T12:32:10;15.30;;;14.13;;
15905;SDS011;8051;50.820;4.884;2022-11-20T12:35:03;15.10;;;14.07;;
15905;SDS011;8051;50.820;4.884;2022-11-20T12:37:39;16.30;;;15.07;;
15905;SDS011;8051;50.820;4.884;2022-11-20T12:40:17;19.57;;;17.93;;
15905;SDS011;8051;50.820;4.884;2022-11-20T12:43:01;19.43;;;17.90;;
15905;SDS011;8051;50.820;4.884;2022-11-20T12:46:05;19.80;;;18.40;;
15905;SDS011;8051;50.820;4.884;2022-11-20T12:48:52;19.20;;;17.70;;
15905;SDS011;8051;50.820;4.884;2022-11-20T12:54:46;18.43;;;17.20;;
15905;SDS011;8051;50.820;4.884;2022-11-20T12:57:27;17.37;;;16.47;;
15905;SDS011;8051;50.820;4.884;2022-11-20T13:00:07;16.30;;;15.20;;
15905;SDS011;8051;50.820;4.884;2022-11-20T13:02:42;17.90;;;16.47;;
15905;SDS011;8051;50.820;4.884;2022-11-20T13:05:28;18.10;;;16.50;;
15905;SDS011;8051;50.820;4.884;2022-11-20T13:08:03;17.03;;;15.93;;
15905;SDS011;8051;50.820;4.884;2022-11-20T13:10:42;17.80;;;16.50;;
15905;SDS011;8051;50.820;4.884;2022-11-20T13:13:16;19.43;;;17.83;;
15905;SDS011;8051;50.820;4.884;2022-11-20T13:15:50;18.67;;;17.10;;
15905;SDS011;8051;50.820;4.884;2022-11-20T13:18:23;17.70;;;16.37;;
15905;SDS011;8051;50.820;4.884;2022-11-20T13:20:51;17.27;;;15.97;;
15905;SDS011;8051;50.820;4.884;2022-11-20T13:23:27;18.00;;;16.60;;
15905;SDS011;8051;50.820;4.884;2022-11-20T13:26:05;18.33;;;16.60;;
15905;SDS011;8051;50.820;4.884;2022-11-20T13:28:40;18.27;;;16.57;;
15905;SDS011;8051;50.820;4.884;2022-11-20T13:31:09;18.27;;;16.53;;
15905;SDS011;8051;50.820;4.884;2022-11-20T13:33:49;17.67;;;16.30;;
15905;SDS011;8051;50.820;4.884;2022-11-20T13:36:22;17.00;;;15.53;;
15905;SDS011;8051;50.820;4.884;2022-11-20T13:38:54;17.90;;;16.40;;
15905;SDS011;8051;50.820;4.884;2022-11-20T13:41:23;18.50;;;17.07;;
15905;SDS011;8051;50.820;4.884;2022-11-20T13:43:57;17.27;;;15.97;;
15905;SDS011;8051;50.820;4.884;2022-11-20T13:46:38;17.33;;;15.83;;
15905;SDS011;8051;50.820;4.884;2022-11-20T13:49:09;18.70;;;16.90;;
15905;SDS011;8051;50.820;4.884;2022-11-20T13:51:43;18.23;;;16.63;;
15905;SDS011;8051;50.820;4.884;2022-11-20T13:57:32;18.13;;;16.73;;
15905;SDS011;8051;50.820;4.884;2022-11-20T14:00:18;17.80;;;16.30;;
15905;SDS011;8051;50.820;4.884;2022-11-20T14:02:48;17.13;;;15.90;;
15905;SDS011;8051;50.820;4.884;2022-11-20T14:05:26;16.47;;;14.97;;
15905;SDS011;8051;50.820;4.884;2022-11-20T14:07:54;16.33;;;15.07;;
15905;SDS011;8051;50.820;4.884;2022-11-20T14:10:25;14.87;;;13.73;;
15905;SDS011;8051;50.820;4.884;2022-11-20T14:12:54;16.40;;;15.10;;
15905;SDS011;8051;50.820;4.884;2022-11-20T14:15:26;16.13;;;14.97;;
15905;SDS011;8051;50.820;4.884;2022-11-20T14:17:55;15.63;;;14.47;;
15905;SDS011;8051;50.820;4.884;2022-11-20T14:20:24;16.90;;;15.70;;
15905;SDS011;8051;50.820;4.884;2022-11-20T14:22:53;17.10;;;15.87;;
15905;SDS011;8051;50.820;4.884;2022-11-20T14:25:21;16.47;;;15.30;;
15905;SDS011;8051;50.820;4.884;2022-11-20T14:27:54;17.20;;;16.00;;
15905;SDS011;8051;50.820;4.884;2022-11-20T14:30:24;17.43;;;16.23;;
15905;SDS011;8051;50.820;4.884;2022-11-20T14:32:53;16.97;;;15.87;;
15905;SDS011;8051;50.820;4.884;2022-11-20T14:35:23;15.63;;;14.20;;
15905;SDS011;8051;50.820;4.884;2022-11-20T14:37:52;14.77;;;13.43;;
15905;SDS011;8051;50.820;4.884;2022-11-20T14:40:22;14.20;;;13.20;;
15905;SDS011;8051;50.820;4.884;2022-11-20T14:42:51;15.00;;;13.80;;
15905;SDS011;8051;50.820;4.884;2022-11-20T14:45:20;14.43;;;13.20;;
15905;SDS011;8051;50.820;4.884;2022-11-20T14:47:48;14.70;;;13.60;;
15905;SDS011;8051;50.820;4.884;2022-11-20T14:50:18;14.97;;;13.97;;
15905;SDS011;8051;50.820;4.884;2022-11-20T14:52:51;14.77;;;13.70;;
15905;SDS011;8051;50.820;4.884;2022-11-20T14:55:27;14.20;;;13.30;;
15905;SDS011;8051;50.820;4.884;2022-11-20T14:57:56;12.77;;;11.93;;
15905;SDS011;8051;50.820;4.884;2022-11-20T15:00:26;15.17;;;14.27;;
15905;SDS011;8051;50.820;4.884;2022-11-20T15:02:54;13.47;;;12.60;;
15905;SDS011;8051;50.820;4.884;2022-11-20T15:05:22;12.53;;;11.67;;